sensor_id;sensor_type;location;lat;lon;timestamp;temperature;humidity
55313;DHT22;46892;45.668;11.756;2023-03-01T00:01:29;3.30;67.20
55313;DHT22;46892;45.668;11.756;2023-03-01T00:03:56;3.30;66.90
55313;DHT22;46892;45.668;11.756;2023-03-01T00:06:22;3.30;68.10
55313;DHT22;46892;45.668;11.756;2023-03-01T00:08:48;3.20;67.70
55313;DHT22;46892;45.668;11.756;2023-03-01T00:11:22;3.10;68.60
55313;DHT22;46892;45.668;11.756;2023-03-01T00:13:50;3.10;68.40
55313;DHT22;46892;45.668;11.756;2023-03-01T00:16:23;3.20;67.90
55313;DHT22;46892;45.668;11.756;2023-03-01T00:18:49;3.10;68.40
55313;DHT22;46892;45.668;11.756;2023-03-01T00:21:16;2.90;68.40
55313;DHT22;46892;45.668;11.756;2023-03-01T00:23:42;2.90;68.80
55313;DHT22;46892;45.668;11.756;2023-03-01T00:26:12;3.00;68.50
55313;DHT22;46892;45.668;11.756;2023-03-01T00:28:37;3.10;68.00
55313;DHT22;46892;45.668;11.756;2023-03-01T00:31:10;3.00;68.10
55313;DHT22;46892;45.668;11.756;2023-03-01T00:33:36;3.00;67.70
55313;DHT22;46892;45.668;11.756;2023-03-01T00:36:02;3.20;67.40
55313;DHT22;46892;45.668;11.756;2023-03-01T00:38:28;3.30;67.20
55313;DHT22;46892;45.668;11.756;2023-03-01T00:40:54;3.30;67.40
55313;DHT22;46892;45.668;11.756;2023-03-01T00:43:20;3.30;67.90
55313;DHT22;46892;45.668;11.756;2023-03-01T00:45:45;3.30;68.10
55313;DHT22;46892;45.668;11.756;2023-03-01T00:48:11;3.30;68.20
55313;DHT22;46892;45.668;11.756;2023-03-01T00:50:37;3.20;68.60
55313;DHT22;46892;45.668;11.756;2023-03-01T00:53:02;3.20;68.90
55313;DHT22;46892;45.668;11.756;2023-03-01T00:55:28;3.00;68.00
55313;DHT22;46892;45.668;11.756;2023-03-01T00:57:54;2.80;68.20
55313;DHT22;46892;45.668;11.756;2023-03-01T01:00:20;2.70;68.90
55313;DHT22;46892;45.668;11.756;2023-03-01T01:02:46;2.80;68.80
55313;DHT22;46892;45.668;11.756;2023-03-01T01:05:12;2.80;68.90
55313;DHT22;46892;45.668;11.756;2023-03-01T01:07:38;2.80;69.40
55313;DHT22;46892;45.668;11.756;2023-03-01T01:10:04;2.80;68.80
55313;DHT22;46892;45.668;11.756;2023-03-01T01:12:30;2.80;68.00
55313;DHT22;46892;45.668;11.756;2023-03-01T01:14:56;2.80;68.50
55313;DHT22;46892;45.668;11.756;2023-03-01T01:17:22;2.80;68.50
55313;DHT22;46892;45.668;11.756;2023-03-01T01:19:47;2.80;68.50
55313;DHT22;46892;45.668;11.756;2023-03-01T01:22:13;2.80;68.50
55313;DHT22;46892;45.668;11.756;2023-03-01T01:24:39;2.80;68.80
55313;DHT22;46892;45.668;11.756;2023-03-01T01:27:04;2.80;68.90
55313;DHT22;46892;45.668;11.756;2023-03-01T01:29:31;2.90;68.70
55313;DHT22;46892;45.668;11.756;2023-03-01T01:31:56;2.90;68.40
55313;DHT22;46892;45.668;11.756;2023-03-01T01:34:22;2.90;68.40
55313;DHT22;46892;45.668;11.756;2023-03-01T01:36:52;2.90;68.70
55313;DHT22;46892;45.668;11.756;2023-03-01T01:39:20;2.90;68.60
55313;DHT22;46892;45.668;11.756;2023-03-01T01:41:46;3.00;68.90
55313;DHT22;46892;45.668;11.756;2023-03-01T01:44:24;3.00;68.90
55313;DHT22;46892;45.668;11.756;2023-03-01T01:49:45;3.10;67.90
55313;DHT22;46892;45.668;11.756;2023-03-01T01:52:20;3.20;67.50
55313;DHT22;46892;45.668;11.756;2023-03-01T01:55:00;3.30;66.80
55313;DHT22;46892;45.668;11.756;2023-03-01T01:57:36;3.30;66.90
55313;DHT22;46892;45.668;11.756;2023-03-01T02:00:09;3.40;66.90
55313;DHT22;46892;45.668;11.756;2023-03-01T02:02:36;3.20;67.40
55313;DHT22;46892;45.668;11.756;2023-03-01T02:05:53;3.30;67.10
55313;DHT22;46892;45.668;11.756;2023-03-01T02:07:52;3.20;67.30
55313;DHT22;46892;45.668;11.756;2023-03-01T02:10:19;3.30;67.30
55313;DHT22;46892;45.668;11.756;2023-03-01T02:12:45;3.20;67.40
55313;DHT22;46892;45.668;11.756;2023-03-01T02:15:11;3.20;67.60
55313;DHT22;46892;45.668;11.756;2023-03-01T02:17:37;3.40;67.30
55313;DHT22;46892;45.668;11.756;2023-03-01T02:22:50;3.30;67.60
55313;DHT22;46892;45.668;11.756;2023-03-01T02:30:33;3.50;68.60
55313;DHT22;46892;45.668;11.756;2023-03-01T02:33:00;3.60;68.30
55313;DHT22;46892;45.668;11.756;2023-03-01T02:35:36;3.60;68.40
55313;DHT22;46892;45.668;11.756;2023-03-01T02:38:03;3.60;68.70
55313;DHT22;46892;45.668;11.756;2023-03-01T02:40:33;3.60;68.60
55313;DHT22;46892;45.668;11.756;2023-03-01T02:42:59;3.40;69.20
55313;DHT22;46892;45.668;11.756;2023-03-01T02:45:26;3.40;69.40
55313;DHT22;46892;45.668;11.756;2023-03-01T02:47:56;3.30;69.60
55313;DHT22;46892;45.668;11.756;2023-03-01T02:53:13;3.30;69.90
55313;DHT22;46892;45.668;11.756;2023-03-01T02:55:42;3.30;70.00
55313;DHT22;46892;45.668;11.756;2023-03-01T02:58:08;3.40;69.90
55313;DHT22;46892;45.668;11.756;2023-03-01T03:00:39;3.40;69.80
55313;DHT22;46892;45.668;11.756;2023-03-01T03:03:12;3.60;69.10
55313;DHT22;46892;45.668;11.756;2023-03-01T03:05:39;3.70;68.60
55313;DHT22;46892;45.668;11.756;2023-03-01T03:08:04;3.70;68.70
55313;DHT22;46892;45.668;11.756;2023-03-01T03:10:33;3.60;69.20
55313;DHT22;46892;45.668;11.756;2023-03-01T03:13:14;3.60;69.00
55313;DHT22;46892;45.668;11.756;2023-03-01T03:15:41;3.60;68.90
55313;DHT22;46892;45.668;11.756;2023-03-01T03:18:09;3.60;68.80
55313;DHT22;46892;45.668;11.756;2023-03-01T03:20:37;3.70;68.50
55313;DHT22;46892;45.668;11.756;2023-03-01T03:23:05;3.80;68.00
55313;DHT22;46892;45.668;11.756;2023-03-01T03:25:30;3.80;67.70
55313;DHT22;46892;45.668;11.756;2023-03-01T03:27:57;3.80;67.60
55313;DHT22;46892;45.668;11.756;2023-03-01T03:30:30;3.90;67.30
55313;DHT22;46892;45.668;11.756;2023-03-01T03:32:58;3.90;67.30
55313;DHT22;46892;45.668;11.756;2023-03-01T03:35:33;4.00;67.20
55313;DHT22;46892;45.668;11.756;2023-03-01T03:38:01;4.30;66.30
55313;DHT22;46892;45.668;11.756;2023-03-01T03:40:34;4.30;66.70
55313;DHT22;46892;45.668;11.756;2023-03-01T03:43:02;4.20;66.60
55313;DHT22;46892;45.668;11.756;2023-03-01T03:45:28;4.10;67.30
55313;DHT22;46892;45.668;11.756;2023-03-01T03:47:53;4.10;67.30
55313;DHT22;46892;45.668;11.756;2023-03-01T03:50:19;4.20;66.80
55313;DHT22;46892;45.668;11.756;2023-03-01T03:52:45;4.20;66.50
55313;DHT22;46892;45.668;11.756;2023-03-01T03:55:11;4.20;66.50
55313;DHT22;46892;45.668;11.756;2023-03-01T03:57:41;4.00;67.10
55313;DHT22;46892;45.668;11.756;2023-03-01T04:00:10;4.10;66.90
55313;DHT22;46892;45.668;11.756;2023-03-01T04:02:43;4.20;66.70
55313;DHT22;46892;45.668;11.756;2023-03-01T04:05:11;4.10;66.70
55313;DHT22;46892;45.668;11.756;2023-03-01T04:07:37;4.00;66.70
55313;DHT22;46892;45.668;11.756;2023-03-01T04:10:12;3.90;67.20
55313;DHT22;46892;45.668;11.756;2023-03-01T04:12:38;3.90;67.10
55313;DHT22;46892;45.668;11.756;2023-03-01T04:15:06;3.90;67.10
55313;DHT22;46892;45.668;11.756;2023-03-01T04:17:46;4.00;66.70
55313;DHT22;46892;45.668;11.756;2023-03-01T04:20:17;3.90;66.50
55313;DHT22;46892;45.668;11.756;2023-03-01T04:22:43;3.70;67.40
55313;DHT22;46892;45.668;11.756;2023-03-01T04:25:13;3.60;67.70
55313;DHT22;46892;45.668;11.756;2023-03-01T04:27:39;3.60;67.90
55313;DHT22;46892;45.668;11.756;2023-03-01T04:30:07;3.70;68.30
55313;DHT22;46892;45.668;11.756;2023-03-01T04:32:33;3.70;68.90
55313;DHT22;46892;45.668;11.756;2023-03-01T04:34:59;3.70;69.30
55313;DHT22;46892;45.668;11.756;2023-03-01T04:37:25;3.70;69.90
55313;DHT22;46892;45.668;11.756;2023-03-01T04:39:51;3.70;69.00
55313;DHT22;46892;45.668;11.756;2023-03-01T04:42:17;3.60;68.80
55313;DHT22;46892;45.668;11.756;2023-03-01T04:44:43;3.60;68.40
55313;DHT22;46892;45.668;11.756;2023-03-01T04:47:09;3.70;68.00
55313;DHT22;46892;45.668;11.756;2023-03-01T04:49:35;3.70;68.10
55313;DHT22;46892;45.668;11.756;2023-03-01T04:52:00;3.80;68.00
55313;DHT22;46892;45.668;11.756;2023-03-01T04:54:32;3.80;67.50
55313;DHT22;46892;45.668;11.756;2023-03-01T04:56:59;3.80;67.70
55313;DHT22;46892;45.668;11.756;2023-03-01T04:59:25;3.80;68.30
55313;DHT22;46892;45.668;11.756;2023-03-01T05:01:51;3.80;68.00
55313;DHT22;46892;45.668;11.756;2023-03-01T05:04:17;4.00;67.70
55313;DHT22;46892;45.668;11.756;2023-03-01T05:06:43;3.90;68.70
55313;DHT22;46892;45.668;11.756;2023-03-01T05:09:09;3.80;68.70
55313;DHT22;46892;45.668;11.756;2023-03-01T05:11:36;3.70;69.40
55313;DHT22;46892;45.668;11.756;2023-03-01T05:14:03;3.60;69.20
55313;DHT22;46892;45.668;11.756;2023-03-01T05:16:29;3.50;69.40
55313;DHT22;46892;45.668;11.756;2023-03-01T05:18:56;3.50;69.60
55313;DHT22;46892;45.668;11.756;2023-03-01T05:21:22;3.60;69.60
55313;DHT22;46892;45.668;11.756;2023-03-01T05:23:48;3.80;68.10
55313;DHT22;46892;45.668;11.756;2023-03-01T05:26:15;4.00;67.10
55313;DHT22;46892;45.668;11.756;2023-03-01T05:28:41;4.10;67.10
55313;DHT22;46892;45.668;11.756;2023-03-01T05:31:07;3.90;68.40
55313;DHT22;46892;45.668;11.756;2023-03-01T05:33:36;3.90;68.30
55313;DHT22;46892;45.668;11.756;2023-03-01T05:36:03;3.90;68.30
55313;DHT22;46892;45.668;11.756;2023-03-01T05:38:28;4.00;68.60
55313;DHT22;46892;45.668;11.756;2023-03-01T05:40:54;3.80;68.70
55313;DHT22;46892;45.668;11.756;2023-03-01T05:43:20;3.60;69.70
55313;DHT22;46892;45.668;11.756;2023-03-01T05:45:45;3.60;69.70
55313;DHT22;46892;45.668;11.756;2023-03-01T05:48:11;3.80;69.80
55313;DHT22;46892;45.668;11.756;2023-03-01T05:50:40;3.80;69.70
55313;DHT22;46892;45.668;11.756;2023-03-01T05:55:36;3.60;70.60
55313;DHT22;46892;45.668;11.756;2023-03-01T05:58:07;3.70;71.30
55313;DHT22;46892;45.668;11.756;2023-03-01T06:00:34;3.70;69.90
55313;DHT22;46892;45.668;11.756;2023-03-01T06:03:00;3.60;70.70
55313;DHT22;46892;45.668;11.756;2023-03-01T06:05:27;3.80;69.90
55313;DHT22;46892;45.668;11.756;2023-03-01T06:07:53;4.00;69.30
55313;DHT22;46892;45.668;11.756;2023-03-01T06:10:20;4.00;69.30
55313;DHT22;46892;45.668;11.756;2023-03-01T06:12:46;4.00;69.80
55313;DHT22;46892;45.668;11.756;2023-03-01T06:15:14;4.00;69.50
55313;DHT22;46892;45.668;11.756;2023-03-01T06:17:42;4.30;69.50
55313;DHT22;46892;45.668;11.756;2023-03-01T06:20:15;4.40;67.60
55313;DHT22;46892;45.668;11.756;2023-03-01T06:22:42;4.60;67.10
55313;DHT22;46892;45.668;11.756;2023-03-01T06:25:09;4.60;67.60
55313;DHT22;46892;45.668;11.756;2023-03-01T06:27:36;4.60;68.30
55313;DHT22;46892;45.668;11.756;2023-03-01T06:30:02;4.80;66.60
55313;DHT22;46892;45.668;11.756;2023-03-01T06:32:28;4.90;67.00
55313;DHT22;46892;45.668;11.756;2023-03-01T06:34:53;4.90;66.60
55313;DHT22;46892;45.668;11.756;2023-03-01T06:37:19;5.00;66.40
55313;DHT22;46892;45.668;11.756;2023-03-01T06:39:44;5.00;65.80
55313;DHT22;46892;45.668;11.756;2023-03-01T06:42:10;5.00;67.40
55313;DHT22;46892;45.668;11.756;2023-03-01T06:44:36;5.00;67.40
55313;DHT22;46892;45.668;11.756;2023-03-01T06:47:03;5.00;68.10
55313;DHT22;46892;45.668;11.756;2023-03-01T06:49:29;5.00;66.60
55313;DHT22;46892;45.668;11.756;2023-03-01T06:51:56;5.20;67.20
55313;DHT22;46892;45.668;11.756;2023-03-01T06:54:22;5.20;66.00
55313;DHT22;46892;45.668;11.756;2023-03-01T06:56:49;5.30;67.30
55313;DHT22;46892;45.668;11.756;2023-03-01T06:59:15;5.30;67.30
55313;DHT22;46892;45.668;11.756;2023-03-01T07:01:41;5.30;66.50
55313;DHT22;46892;45.668;11.756;2023-03-01T07:04:07;5.30;67.20
55313;DHT22;46892;45.668;11.756;2023-03-01T07:06:32;5.20;68.10
55313;DHT22;46892;45.668;11.756;2023-03-01T07:08:58;5.20;68.30
55313;DHT22;46892;45.668;11.756;2023-03-01T07:11:23;5.30;69.10
55313;DHT22;46892;45.668;11.756;2023-03-01T07:13:49;5.40;70.00
55313;DHT22;46892;45.668;11.756;2023-03-01T07:16:15;5.40;68.10
55313;DHT22;46892;45.668;11.756;2023-03-01T07:18:41;5.50;67.60
55313;DHT22;46892;45.668;11.756;2023-03-01T07:21:08;5.50;67.30
55313;DHT22;46892;45.668;11.756;2023-03-01T07:23:34;5.60;66.00
55313;DHT22;46892;45.668;11.756;2023-03-01T07:26:00;5.70;65.60
55313;DHT22;46892;45.668;11.756;2023-03-01T07:28:26;5.70;65.90
55313;DHT22;46892;45.668;11.756;2023-03-01T07:30:53;5.80;64.40
55313;DHT22;46892;45.668;11.756;2023-03-01T07:33:18;5.90;64.40
55313;DHT22;46892;45.668;11.756;2023-03-01T07:35:44;6.00;66.40
55313;DHT22;46892;45.668;11.756;2023-03-01T07:38:10;6.10;65.20
55313;DHT22;46892;45.668;11.756;2023-03-01T07:40:36;6.20;65.30
55313;DHT22;46892;45.668;11.756;2023-03-01T07:43:01;6.30;63.40
55313;DHT22;46892;45.668;11.756;2023-03-01T07:45:27;6.50;63.20
55313;DHT22;46892;45.668;11.756;2023-03-01T07:47:54;6.60;64.00
55313;DHT22;46892;45.668;11.756;2023-03-01T07:50:20;6.70;62.10
55313;DHT22;46892;45.668;11.756;2023-03-01T07:52:47;6.90;62.30
55313;DHT22;46892;45.668;11.756;2023-03-01T07:55:13;7.00;61.90
55313;DHT22;46892;45.668;11.756;2023-03-01T07:57:39;7.00;61.50
55313;DHT22;46892;45.668;11.756;2023-03-01T08:00:06;7.10;62.00
55313;DHT22;46892;45.668;11.756;2023-03-01T08:02:32;7.10;61.90
55313;DHT22;46892;45.668;11.756;2023-03-01T08:04:58;7.20;62.10
55313;DHT22;46892;45.668;11.756;2023-03-01T08:07:23;7.30;62.00
55313;DHT22;46892;45.668;11.756;2023-03-01T08:09:49;7.30;62.60
55313;DHT22;46892;45.668;11.756;2023-03-01T08:12:14;7.40;61.10
55313;DHT22;46892;45.668;11.756;2023-03-01T08:14:42;7.50;61.10
55313;DHT22;46892;45.668;11.756;2023-03-01T08:17:08;7.60;60.80
55313;DHT22;46892;45.668;11.756;2023-03-01T08:19:33;7.60;61.70
55313;DHT22;46892;45.668;11.756;2023-03-01T08:22:01;7.60;60.30
55313;DHT22;46892;45.668;11.756;2023-03-01T08:24:28;7.80;60.60
55313;DHT22;46892;45.668;11.756;2023-03-01T08:26:54;7.80;60.90
55313;DHT22;46892;45.668;11.756;2023-03-01T08:29:20;7.90;61.30
55313;DHT22;46892;45.668;11.756;2023-03-01T08:31:46;8.00;59.70
55313;DHT22;46892;45.668;11.756;2023-03-01T08:34:15;8.00;57.40
55313;DHT22;46892;45.668;11.756;2023-03-01T08:36:43;8.00;58.30
55313;DHT22;46892;45.668;11.756;2023-03-01T08:39:11;8.10;57.20
55313;DHT22;46892;45.668;11.756;2023-03-01T08:41:37;8.10;58.10
55313;DHT22;46892;45.668;11.756;2023-03-01T08:44:04;8.10;58.30
55313;DHT22;46892;45.668;11.756;2023-03-01T08:46:32;8.10;57.80
55313;DHT22;46892;45.668;11.756;2023-03-01T08:48:58;8.10;58.90
55313;DHT22;46892;45.668;11.756;2023-03-01T08:51:25;8.10;56.50
55313;DHT22;46892;45.668;11.756;2023-03-01T08:53:51;8.10;58.20
55313;DHT22;46892;45.668;11.756;2023-03-01T08:56:17;8.10;56.60
55313;DHT22;46892;45.668;11.756;2023-03-01T08:58:47;8.30;56.60
55313;DHT22;46892;45.668;11.756;2023-03-01T09:01:18;8.40;56.70
55313;DHT22;46892;45.668;11.756;2023-03-01T09:03:44;8.50;57.80
55313;DHT22;46892;45.668;11.756;2023-03-01T09:06:10;8.60;56.60
55313;DHT22;46892;45.668;11.756;2023-03-01T09:08:41;8.80;57.70
55313;DHT22;46892;45.668;11.756;2023-03-01T09:11:09;8.80;55.60
55313;DHT22;46892;45.668;11.756;2023-03-01T09:13:35;8.80;56.00
55313;DHT22;46892;45.668;11.756;2023-03-01T09:16:02;8.80;54.60
55313;DHT22;46892;45.668;11.756;2023-03-01T09:18:29;8.80;54.80
55313;DHT22;46892;45.668;11.756;2023-03-01T09:21:02;8.90;54.00
55313;DHT22;46892;45.668;11.756;2023-03-01T09:23:28;9.00;53.80
55313;DHT22;46892;45.668;11.756;2023-03-01T09:25:53;9.00;54.10
55313;DHT22;46892;45.668;11.756;2023-03-01T09:28:19;9.20;53.40
55313;DHT22;46892;45.668;11.756;2023-03-01T09:30:44;9.40;54.10
55313;DHT22;46892;45.668;11.756;2023-03-01T09:33:10;9.50;52.60
55313;DHT22;46892;45.668;11.756;2023-03-01T09:35:40;9.50;52.30
55313;DHT22;46892;45.668;11.756;2023-03-01T09:38:11;9.70;53.10
55313;DHT22;46892;45.668;11.756;2023-03-01T09:40:42;9.80;53.00
55313;DHT22;46892;45.668;11.756;2023-03-01T09:43:41;10.00;51.50
55313;DHT22;46892;45.668;11.756;2023-03-01T09:46:11;10.00;51.60
55313;DHT22;46892;45.668;11.756;2023-03-01T09:48:43;10.00;50.80
55313;DHT22;46892;45.668;11.756;2023-03-01T09:51:37;10.10;51.40
55313;DHT22;46892;45.668;11.756;2023-03-01T09:54:04;10.00;51.40
55313;DHT22;46892;45.668;11.756;2023-03-01T09:56:34;10.10;50.90
55313;DHT22;46892;45.668;11.756;2023-03-01T09:59:07;10.20;50.80
55313;DHT22;46892;45.668;11.756;2023-03-01T10:01:44;10.30;50.60
55313;DHT22;46892;45.668;11.756;2023-03-01T10:09:38;10.60;51.50
55313;DHT22;46892;45.668;11.756;2023-03-01T10:12:10;10.80;50.00
55313;DHT22;46892;45.668;11.756;2023-03-01T10:15:02;11.00;51.40
55313;DHT22;46892;45.668;11.756;2023-03-01T10:17:57;11.50;49.50
55313;DHT22;46892;45.668;11.756;2023-03-01T10:20:32;11.60;47.80
55313;DHT22;46892;45.668;11.756;2023-03-01T10:22:59;11.70;48.00
55313;DHT22;46892;45.668;11.756;2023-03-01T10:28:30;11.70;48.00
55313;DHT22;46892;45.668;11.756;2023-03-01T10:30:58;11.60;47.10
55313;DHT22;46892;45.668;11.756;2023-03-01T10:33:27;11.50;47.50
55313;DHT22;46892;45.668;11.756;2023-03-01T10:35:54;11.40;47.90
55313;DHT22;46892;45.668;11.756;2023-03-01T10:38:20;11.30;49.30
55313;DHT22;46892;45.668;11.756;2023-03-01T10:41:06;11.30;49.40
55313;DHT22;46892;45.668;11.756;2023-03-01T10:43:45;11.10;49.00
55313;DHT22;46892;45.668;11.756;2023-03-01T10:46:33;11.20;49.40
55313;DHT22;46892;45.668;11.756;2023-03-01T10:49:17;11.10;49.80
55313;DHT22;46892;45.668;11.756;2023-03-01T10:51:45;11.20;50.90
55313;DHT22;46892;45.668;11.756;2023-03-01T10:54:19;11.30;50.20
55313;DHT22;46892;45.668;11.756;2023-03-01T10:56:53;11.30;49.40
55313;DHT22;46892;45.668;11.756;2023-03-01T10:59:36;11.40;49.40
55313;DHT22;46892;45.668;11.756;2023-03-01T11:02:26;11.40;48.80
55313;DHT22;46892;45.668;11.756;2023-03-01T11:04:57;11.40;49.90
55313;DHT22;46892;45.668;11.756;2023-03-01T11:07:23;11.40;50.00
55313;DHT22;46892;45.668;11.756;2023-03-01T11:09:49;11.40;49.50
55313;DHT22;46892;45.668;11.756;2023-03-01T11:12:16;11.40;50.10
55313;DHT22;46892;45.668;11.756;2023-03-01T11:14:53;11.40;51.10
55313;DHT22;46892;45.668;11.756;2023-03-01T11:17:28;11.40;50.60
55313;DHT22;46892;45.668;11.756;2023-03-01T11:22:27;11.30;51.00
55313;DHT22;46892;45.668;11.756;2023-03-01T11:24:54;11.30;51.40
55313;DHT22;46892;45.668;11.756;2023-03-01T11:27:36;11.20;52.60
55313;DHT22;46892;45.668;11.756;2023-03-01T11:30:16;11.10;52.30
55313;DHT22;46892;45.668;11.756;2023-03-01T11:35:35;11.00;52.60
55313;DHT22;46892;45.668;11.756;2023-03-01T11:41:28;10.90;51.90
55313;DHT22;46892;45.668;11.756;2023-03-01T12:12:17;10.50;49.50
55313;DHT22;46892;45.668;11.756;2023-03-01T12:15:04;10.40;50.50
55313;DHT22;46892;45.668;11.756;2023-03-01T12:20:20;10.40;50.50
55313;DHT22;46892;45.668;11.756;2023-03-01T12:28:03;10.30;50.40
55313;DHT22;46892;45.668;11.756;2023-03-01T12:38:49;10.20;51.50
55313;DHT22;46892;45.668;11.756;2023-03-01T12:47:16;10.10;52.10
55313;DHT22;46892;45.668;11.756;2023-03-01T12:49:55;10.00;52.50
55313;DHT22;46892;45.668;11.756;2023-03-01T12:52:47;9.90;52.30
55313;DHT22;46892;45.668;11.756;2023-03-01T12:55:35;9.80;52.60
55313;DHT22;46892;45.668;11.756;2023-03-01T13:03:53;9.80;53.20
55313;DHT22;46892;45.668;11.756;2023-03-01T13:06:34;9.80;53.20
55313;DHT22;46892;45.668;11.756;2023-03-01T13:10:01;9.80;53.00
55313;DHT22;46892;45.668;11.756;2023-03-01T13:12:00;9.90;52.70
55313;DHT22;46892;45.668;11.756;2023-03-01T13:16:52;9.80;55.80
55313;DHT22;46892;45.668;11.756;2023-03-01T13:19:19;9.70;55.70
55313;DHT22;46892;45.668;11.756;2023-03-01T13:21:46;9.50;56.50
55313;DHT22;46892;45.668;11.756;2023-03-01T13:24:28;9.50;58.30
55313;DHT22;46892;45.668;11.756;2023-03-01T13:29:52;8.70;64.20
55313;DHT22;46892;45.668;11.756;2023-03-01T13:32:28;8.50;64.80
55313;DHT22;46892;45.668;11.756;2023-03-01T13:37:43;8.20;67.30
55313;DHT22;46892;45.668;11.756;2023-03-01T13:42:49;7.80;70.00
55313;DHT22;46892;45.668;11.756;2023-03-01T13:48:22;7.80;70.60
55313;DHT22;46892;45.668;11.756;2023-03-01T13:50:55;7.90;70.00
55313;DHT22;46892;45.668;11.756;2023-03-01T13:53:25;7.90;69.80
55313;DHT22;46892;45.668;11.756;2023-03-01T13:55:56;8.00;69.90
55313;DHT22;46892;45.668;11.756;2023-03-01T13:58:29;8.00;70.20
55313;DHT22;46892;45.668;11.756;2023-03-01T14:03:23;8.20;71.10
55313;DHT22;46892;45.668;11.756;2023-03-01T14:06:08;8.20;70.90
55313;DHT22;46892;45.668;11.756;2023-03-01T14:08:36;8.30;70.70
55313;DHT22;46892;45.668;11.756;2023-03-01T14:19:30;8.60;70.90
55313;DHT22;46892;45.668;11.756;2023-03-01T14:24:59;8.70;69.70
55313;DHT22;46892;45.668;11.756;2023-03-01T14:27:32;8.80;69.60
55313;DHT22;46892;45.668;11.756;2023-03-01T14:30:00;8.90;69.20
55313;DHT22;46892;45.668;11.756;2023-03-01T14:32:29;9.00;67.80
55313;DHT22;46892;45.668;11.756;2023-03-01T14:34:56;9.10;67.70
55313;DHT22;46892;45.668;11.756;2023-03-01T14:39:53;9.20;65.90
55313;DHT22;46892;45.668;11.756;2023-03-01T14:42:21;9.30;66.30
55313;DHT22;46892;45.668;11.756;2023-03-01T14:44:49;9.30;64.90
55313;DHT22;46892;45.668;11.756;2023-03-01T14:49:51;9.30;65.40
55313;DHT22;46892;45.668;11.756;2023-03-01T14:52:24;9.30;65.50
55313;DHT22;46892;45.668;11.756;2023-03-01T14:54:54;9.30;65.00
55313;DHT22;46892;45.668;11.756;2023-03-01T14:57:25;9.30;65.20
55313;DHT22;46892;45.668;11.756;2023-03-01T15:02:43;9.30;63.00
55313;DHT22;46892;45.668;11.756;2023-03-01T15:05:09;9.30;63.70
55313;DHT22;46892;45.668;11.756;2023-03-01T15:07:40;9.30;62.90
55313;DHT22;46892;45.668;11.756;2023-03-01T15:10:22;9.30;62.70
55313;DHT22;46892;45.668;11.756;2023-03-01T15:12:48;9.20;63.20
55313;DHT22;46892;45.668;11.756;2023-03-01T15:15:31;9.10;63.80
55313;DHT22;46892;45.668;11.756;2023-03-01T15:17:59;9.10;65.00
55313;DHT22;46892;45.668;11.756;2023-03-01T15:20:27;9.00;64.90
55313;DHT22;46892;45.668;11.756;2023-03-01T15:22:55;8.90;64.90
55313;DHT22;46892;45.668;11.756;2023-03-01T15:25:24;8.90;64.50
55313;DHT22;46892;45.668;11.756;2023-03-01T15:27:52;9.00;64.00
55313;DHT22;46892;45.668;11.756;2023-03-01T15:30:21;9.00;64.00
55313;DHT22;46892;45.668;11.756;2023-03-01T15:32:47;8.90;64.00
55313;DHT22;46892;45.668;11.756;2023-03-01T15:35:47;9.00;64.90
55313;DHT22;46892;45.668;11.756;2023-03-01T15:38:32;8.90;64.00
55313;DHT22;46892;45.668;11.756;2023-03-01T15:41:00;9.00;64.30
55313;DHT22;46892;45.668;11.756;2023-03-01T15:43:43;9.00;64.60
55313;DHT22;46892;45.668;11.756;2023-03-01T15:49:04;9.00;64.50
55313;DHT22;46892;45.668;11.756;2023-03-01T15:51:33;9.00;65.10
55313;DHT22;46892;45.668;11.756;2023-03-01T15:54:20;9.00;65.30
55313;DHT22;46892;45.668;11.756;2023-03-01T15:56:46;8.90;65.40
55313;DHT22;46892;45.668;11.756;2023-03-01T15:59:13;8.90;65.50
55313;DHT22;46892;45.668;11.756;2023-03-01T16:01:40;8.90;66.00
55313;DHT22;46892;45.668;11.756;2023-03-01T16:04:05;8.90;66.80
55313;DHT22;46892;45.668;11.756;2023-03-01T16:06:31;8.80;67.50
55313;DHT22;46892;45.668;11.756;2023-03-01T16:08:57;8.80;67.80
55313;DHT22;46892;45.668;11.756;2023-03-01T16:11:23;8.80;68.60
55313;DHT22;46892;45.668;11.756;2023-03-01T16:13:49;8.70;67.80
55313;DHT22;46892;45.668;11.756;2023-03-01T16:16:15;8.80;67.80
55313;DHT22;46892;45.668;11.756;2023-03-01T16:18:45;8.70;65.50
55313;DHT22;46892;45.668;11.756;2023-03-01T16:21:19;8.80;65.50
55313;DHT22;46892;45.668;11.756;2023-03-01T16:23:45;8.80;66.90
55313;DHT22;46892;45.668;11.756;2023-03-01T16:26:11;8.80;67.10
55313;DHT22;46892;45.668;11.756;2023-03-01T16:28:39;8.70;68.10
55313;DHT22;46892;45.668;11.756;2023-03-01T16:31:05;8.70;68.80
55313;DHT22;46892;45.668;11.756;2023-03-01T16:33:31;8.60;69.80
55313;DHT22;46892;45.668;11.756;2023-03-01T16:35:57;8.50;70.80
55313;DHT22;46892;45.668;11.756;2023-03-01T16:38:23;8.30;71.40
55313;DHT22;46892;45.668;11.756;2023-03-01T16:40:50;8.30;73.10
55313;DHT22;46892;45.668;11.756;2023-03-01T16:43:16;8.00;73.90
55313;DHT22;46892;45.668;11.756;2023-03-01T16:45:42;7.80;74.30
55313;DHT22;46892;45.668;11.756;2023-03-01T16:48:10;7.80;74.60
55313;DHT22;46892;45.668;11.756;2023-03-01T16:50:36;7.80;75.00
55313;DHT22;46892;45.668;11.756;2023-03-01T16:53:02;7.80;75.90
55313;DHT22;46892;45.668;11.756;2023-03-01T16:55:28;7.80;75.60
55313;DHT22;46892;45.668;11.756;2023-03-01T16:57:53;7.80;75.40
55313;DHT22;46892;45.668;11.756;2023-03-01T17:00:19;7.80;76.00
55313;DHT22;46892;45.668;11.756;2023-03-01T17:02:46;7.80;76.50
55313;DHT22;46892;45.668;11.756;2023-03-01T17:05:11;7.80;76.70
55313;DHT22;46892;45.668;11.756;2023-03-01T17:07:37;7.70;77.10
55313;DHT22;46892;45.668;11.756;2023-03-01T17:10:05;7.80;76.40
55313;DHT22;46892;45.668;11.756;2023-03-01T17:12:31;7.80;76.00
55313;DHT22;46892;45.668;11.756;2023-03-01T17:14:58;7.70;76.70
55313;DHT22;46892;45.668;11.756;2023-03-01T17:17:23;7.70;75.60
55313;DHT22;46892;45.668;11.756;2023-03-01T17:19:49;7.80;76.10
55313;DHT22;46892;45.668;11.756;2023-03-01T17:22:15;7.70;76.10
55313;DHT22;46892;45.668;11.756;2023-03-01T17:24:42;7.60;76.70
55313;DHT22;46892;45.668;11.756;2023-03-01T17:27:10;7.50;77.50
55313;DHT22;46892;45.668;11.756;2023-03-01T17:29:37;7.60;78.20
55313;DHT22;46892;45.668;11.756;2023-03-01T17:32:03;7.50;78.60
55313;DHT22;46892;45.668;11.756;2023-03-01T17:34:31;7.40;79.20
55313;DHT22;46892;45.668;11.756;2023-03-01T17:36:57;7.30;79.30
55313;DHT22;46892;45.668;11.756;2023-03-01T17:39:23;7.30;79.20
55313;DHT22;46892;45.668;11.756;2023-03-01T17:42:01;7.30;80.00
55313;DHT22;46892;45.668;11.756;2023-03-01T17:44:26;7.30;80.70
55313;DHT22;46892;45.668;11.756;2023-03-01T17:46:52;7.30;81.10
55313;DHT22;46892;45.668;11.756;2023-03-01T17:49:18;7.20;80.80